Arletta, Washington
Current Conditions -  °F | °C
As of 3:53 AM on Saturday 20 Dec 2014 (Local Time) from KTIW Reporting Station
Light Rain Light Rain  
Wind Chill: 42°   Ceiling: 4600
Heat Index: 47°   Visibility: 10mi
Dew Point: 40°   Wind: 10mph
Humidity: 77%   Direction: 150°SSE
Pressure: 29.73"   Gusts: NA
Location:  47.2986°N, 122.616°W
Report Text: KTIW 201153Z AUTO 15009KT 10SM -RA OVC046 08/04 A2973 RMK AO2 SLP069 P0000 60011 70011 T00830044 10089 20072 58033
Loading
Personal Weather Stations






























Interactive Weather Map New forecast layout! Learn more

10-Day Weather Forecast

Advertisements
Track Severe Weather on mobile